Omaha, Georgia
Current Conditions -  °F | °C
As of 8:58 AM on Monday 26 Jan 2015 (Local Time) from KLSF Reporting Station
Overcast Overcast  
Wind Chill: 41°   Ceiling: 2500
Heat Index: 46°   Visibility: 10mi
Dew Point: 38°   Wind: 12mph
Humidity: 73%   Direction: 290°WNW
Pressure: 29.88"   Gusts: 20mph
Location:  32.15°N, 85.01°W
Report Text: KLSF 261358Z AUTO 29010G17KT 10SM OVC025 08/03 A2988 RMK AO2 SLP121 T00780032
Loading
Personal Weather Stations






























Interactive Weather Map New forecast layout! Learn more

10-Day Weather Forecast

Advertisements
Track Severe Weather on mobile